Terminal Aerodrome Forecast
Issued by NWS Newport/Morehead City, NC

Home | Current Version | Previous Version | Text Only | Print | Product List | Glossary On
Versions: 1 2 3 4 5 6 7 8 9 10 11 12 13 14 15 16 17
186
FTUS42 KMHX 220147 AAA
TAFEWN
TAF AMD
KEWN 220147Z 2202/2224 16005KT 6SM -SHRA OVC004
     FM220600 21007KT 3SM BR OVC004
     FM220900 23007KT 1/2SM FG OVC002
     FM221300 23005KT 3SM SHRA VCTS OVC002CB
     FM221600 17009KT P6SM SHRA VCTS OVC015CB=

USA.gov is the U.S. government's official web portal to all federal, state and local government web resources and services.